createdAt,value
2022-09-14T00:13:46.643Z,99484.97
2022-09-14T00:28:54.583Z,99494.81
2022-09-14T00:44:11.665Z,99501.19
2022-09-14T00:59:25.823Z,99499.22
2022-09-14T01:14:31.799Z,99517.69
2022-09-14T01:29:55.228Z,99519.06
2022-09-14T01:45:01.916Z,99520.53
2022-09-14T02:00:11.262Z,99533.06
2022-09-14T02:15:14.984Z,99540.03
2022-09-14T02:30:17.652Z,99563.72
2022-09-14T02:45:31.778Z,99556.44
2022-09-14T03:00:37.858Z,99568.28
2022-09-14T03:15:39.993Z,99580.47
2022-09-14T03:30:41.853Z,99595.16
2022-09-14T03:45:43.749Z,99605.91
2022-09-14T04:00:45.862Z,99614.38
2022-09-14T04:15:57.145Z,99622.00
2022-09-14T04:31:01.378Z,99652.28
2022-09-14T04:46:04.933Z,99667.00
2022-09-14T05:01:11.858Z,99670.88
2022-09-14T05:16:18.950Z,99660.00
2022-09-14T05:31:22.038Z,99662.91
2022-09-14T05:46:24.156Z,99683.22
2022-09-14T06:01:32.825Z,99700.88
2022-09-14T06:16:35.223Z,99706.22
2022-09-14T06:31:37.147Z,99715.22
2022-09-14T06:46:39.067Z,99720.56
2022-09-14T07:01:41.505Z,99718.44
2022-09-14T07:16:43.359Z,99746.69
2022-09-14T07:31:53.053Z,99748.63
2022-09-14T07:46:54.978Z,99745.28
2022-09-14T08:01:56.946Z,99750.53
2022-09-14T08:17:00.757Z,99749.25
2022-09-14T08:32:02.925Z,99756.41
2022-09-14T08:47:12.692Z,99764.19
2022-09-14T09:02:43.519Z,99767.69
2022-09-14T09:17:49.729Z,99762.00
2022-09-14T09:32:52.418Z,99764.06
2022-09-14T09:47:54.454Z,99766.09
2022-09-14T10:03:07.320Z,99769.78
2022-09-14T10:18:17.709Z,99770.13
2022-09-14T10:33:21.178Z,99787.28
2022-09-14T10:48:41.666Z,99773.88
2022-09-14T11:04:02.033Z,99765.56
2022-09-14T11:19:31.657Z,99747.94
2022-09-14T11:34:44.293Z,99750.59
2022-09-14T11:50:09.692Z,99751.19
2022-09-14T12:05:13.069Z,99745.50
2022-09-14T12:20:33.085Z,99754.56
2022-09-14T12:35:34.884Z,99734.56
2022-09-14T12:50:40.884Z,99733.41
2022-09-14T13:05:45.144Z,99725.53
2022-09-14T13:20:51.996Z,99714.44
2022-09-14T13:35:56.922Z,99712.16
2022-09-14T13:50:58.922Z,99713.88
2022-09-14T14:06:16.030Z,99708.78
2022-09-14T14:21:25.756Z,99696.19
2022-09-14T14:36:27.640Z,99704.94
2022-09-14T14:51:34.763Z,99708.81
2022-09-14T15:06:36.670Z,99701.66
2022-09-14T15:21:40.041Z,99702.47
2022-09-14T15:36:43.543Z,99705.53
2022-09-14T15:51:47.861Z,99715.13
2022-09-14T16:06:49.504Z,99705.38
2022-09-14T16:21:53.851Z,99711.06
2022-09-14T16:36:56.753Z,99720.72
2022-09-14T16:52:01.979Z,99727.44
2022-09-14T17:07:03.867Z,99705.97
2022-09-14T17:22:10.150Z,99725.47
2022-09-14T17:37:12.162Z,99716.03
2022-09-14T17:52:14.214Z,99710.16
2022-09-14T18:07:16.632Z,99729.84
2022-09-14T18:22:18.870Z,99723.38
2022-09-14T18:37:23.058Z,99708.31
2022-09-14T18:52:25.123Z,99705.31
2022-09-14T19:07:27.193Z,99716.56
2022-09-14T19:22:29.390Z,99718.66
2022-09-14T19:37:31.760Z,99732.69
2022-09-14T19:52:33.713Z,99727.72
2022-09-14T20:07:35.545Z,99706.75
2022-09-14T20:22:38.176Z,99696.75
2022-09-14T20:37:40.239Z,99692.56
2022-09-14T20:52:42.268Z,99682.25
2022-09-14T21:07:55.543Z,99671.06
2022-09-14T21:22:58.081Z,99658.09
2022-09-14T21:37:59.868Z,99662.44
2022-09-14T21:53:01.737Z,99678.25
2022-09-14T22:08:03.714Z,99669.00
2022-09-14T22:23:05.644Z,99651.69
2022-09-14T22:38:07.567Z,99651.16
2022-09-14T22:53:10.135Z,99650.84
2022-09-14T23:08:12.009Z,99649.91
2022-09-14T23:23:13.884Z,99637.72
2022-09-14T23:38:16.323Z,99647.41
2022-09-14T23:53:18.235Z,99634.63
